Alberta, Alabama
Current Conditions -  °F | °C
As of 12:15 PM on Thursday 29 Jan 2015 (Local Time) from KDYA Reporting Station
Clear Clear  
Wind Chill: 68°   Ceiling: Unl
Heat Index: 68°   Visibility: 10mi
Dew Point: 46°   Wind: 15mph
Humidity: 45%   Direction: 190°S
Pressure: 30.17"   Gusts: 22mph
Location:  32.23°N, 87.41°W
Report Text: KDYA 291815Z AUTO 19013G19KT 10SM CLR 20/08 A3017 RMK AO2 T02010079
Loading
Personal Weather Stations






























Interactive Weather Map New forecast layout! Learn more

10-Day Weather Forecast

Advertisements
Track Severe Weather on mobile